sensor_id;sensor_type;location;lat;lon;timestamp;temperature;humidity
20862;DHT22;10591;52.532;13.348;2023-12-28T00:01:24;4.46;83.78
20862;DHT22;10591;52.532;13.348;2023-12-28T00:03:54;4.56;83.34
20862;DHT22;10591;52.532;13.348;2023-12-28T00:06:25;4.62;83.26
20862;DHT22;10591;52.532;13.348;2023-12-28T00:08:56;4.64;83.27
20862;DHT22;10591;52.532;13.348;2023-12-28T00:11:28;4.64;83.11
20862;DHT22;10591;52.532;13.348;2023-12-28T00:13:59;4.65;83.20
20862;DHT22;10591;52.532;13.348;2023-12-28T00:16:31;4.61;83.26
20862;DHT22;10591;52.532;13.348;2023-12-28T00:19:06;4.64;83.03
20862;DHT22;10591;52.532;13.348;2023-12-28T00:21:37;4.53;83.22
20862;DHT22;10591;52.532;13.348;2023-12-28T00:24:09;4.64;82.95
20862;DHT22;10591;52.532;13.348;2023-12-28T00:26:40;4.73;82.85
20862;DHT22;10591;52.532;13.348;2023-12-28T00:29:10;4.75;82.78
20862;DHT22;10591;52.532;13.348;2023-12-28T00:31:41;4.64;82.88
20862;DHT22;10591;52.532;13.348;2023-12-28T00:34:12;4.68;83.14
20862;DHT22;10591;52.532;13.348;2023-12-28T00:36:42;4.84;82.71
20862;DHT22;10591;52.532;13.348;2023-12-28T00:39:13;4.79;82.84
20862;DHT22;10591;52.532;13.348;2023-12-28T00:41:44;4.83;82.87
20862;DHT22;10591;52.532;13.348;2023-12-28T00:44:15;4.83;82.75
20862;DHT22;10591;52.532;13.348;2023-12-28T00:46:45;4.93;82.54
20862;DHT22;10591;52.532;13.348;2023-12-28T00:49:16;4.82;82.71
20862;DHT22;10591;52.532;13.348;2023-12-28T00:51:47;4.96;82.39
20862;DHT22;10591;52.532;13.348;2023-12-28T00:54:17;4.90;82.84
20862;DHT22;10591;52.532;13.348;2023-12-28T00:56:50;4.94;82.04
20862;DHT22;10591;52.532;13.348;2023-12-28T00:59:20;5.10;81.79
20862;DHT22;10591;52.532;13.348;2023-12-28T01:01:51;4.98;81.86
20862;DHT22;10591;52.532;13.348;2023-12-28T01:04:21;4.79;82.75
20862;DHT22;10591;52.532;13.348;2023-12-28T01:06:55;4.98;81.95
20862;DHT22;10591;52.532;13.348;2023-12-28T01:09:25;5.10;81.84
20862;DHT22;10591;52.532;13.348;2023-12-28T01:11:56;5.12;81.63
20862;DHT22;10591;52.532;13.348;2023-12-28T01:14:27;5.18;81.11
20862;DHT22;10591;52.532;13.348;2023-12-28T01:16:58;5.08;81.46
20862;DHT22;10591;52.532;13.348;2023-12-28T01:19:29;5.20;81.20
20862;DHT22;10591;52.532;13.348;2023-12-28T01:22:00;5.21;80.95
20862;DHT22;10591;52.532;13.348;2023-12-28T01:24:30;5.20;80.68
20862;DHT22;10591;52.532;13.348;2023-12-28T01:27:01;5.29;80.51
20862;DHT22;10591;52.532;13.348;2023-12-28T01:29:32;5.31;80.40
20862;DHT22;10591;52.532;13.348;2023-12-28T01:32:04;5.25;80.39
20862;DHT22;10591;52.532;13.348;2023-12-28T01:34:35;5.12;80.71
20862;DHT22;10591;52.532;13.348;2023-12-28T01:37:06;5.20;80.35
20862;DHT22;10591;52.532;13.348;2023-12-28T01:39:39;5.21;80.35
20862;DHT22;10591;52.532;13.348;2023-12-28T01:42:10;5.28;80.22
20862;DHT22;10591;52.532;13.348;2023-12-28T01:44:40;5.44;79.44
20862;DHT22;10591;52.532;13.348;2023-12-28T01:47:11;5.46;79.30
20862;DHT22;10591;52.532;13.348;2023-12-28T01:49:42;5.49;79.12
20862;DHT22;10591;52.532;13.348;2023-12-28T01:52:13;5.48;79.07
20862;DHT22;10591;52.532;13.348;2023-12-28T01:54:44;5.56;78.67
20862;DHT22;10591;52.532;13.348;2023-12-28T01:57:16;5.44;79.01
20862;DHT22;10591;52.532;13.348;2023-12-28T01:59:47;5.58;78.70
20862;DHT22;10591;52.532;13.348;2023-12-28T02:02:18;5.70;78.14
20862;DHT22;10591;52.532;13.348;2023-12-28T02:04:48;5.62;78.22
20862;DHT22;10591;52.532;13.348;2023-12-28T02:07:21;5.69;77.70
20862;DHT22;10591;52.532;13.348;2023-12-28T02:09:52;5.76;77.43
20862;DHT22;10591;52.532;13.348;2023-12-28T02:12:22;5.70;77.53
20862;DHT22;10591;52.532;13.348;2023-12-28T02:14:53;5.54;78.35
20862;DHT22;10591;52.532;13.348;2023-12-28T02:17:28;5.54;78.21
20862;DHT22;10591;52.532;13.348;2023-12-28T02:20:01;5.50;78.32
20862;DHT22;10591;52.532;13.348;2023-12-28T02:22:34;5.50;77.76
20862;DHT22;10591;52.532;13.348;2023-12-28T02:25:11;5.64;77.82
20862;DHT22;10591;52.532;13.348;2023-12-28T02:27:44;5.69;77.12
20862;DHT22;10591;52.532;13.348;2023-12-28T02:30:21;5.80;76.60
20862;DHT22;10591;52.532;13.348;2023-12-28T02:35:48;6.12;75.14
20862;DHT22;10591;52.532;13.348;2023-12-28T02:38:19;6.16;74.54
20862;DHT22;10591;52.532;13.348;2023-12-28T02:40:50;6.16;74.16
20862;DHT22;10591;52.532;13.348;2023-12-28T02:43:22;6.42;73.40
20862;DHT22;10591;52.532;13.348;2023-12-28T02:45:53;6.30;72.87
20862;DHT22;10591;52.532;13.348;2023-12-28T02:48:23;6.39;72.88
20862;DHT22;10591;52.532;13.348;2023-12-28T02:50:55;6.60;71.40
20862;DHT22;10591;52.532;13.348;2023-12-28T02:53:26;6.75;70.46
20862;DHT22;10591;52.532;13.348;2023-12-28T02:55:56;6.72;70.46
20862;DHT22;10591;52.532;13.348;2023-12-28T02:58:27;6.84;69.58
20862;DHT22;10591;52.532;13.348;2023-12-28T03:00:58;6.86;69.32
20862;DHT22;10591;52.532;13.348;2023-12-28T03:03:28;6.92;68.86
20862;DHT22;10591;52.532;13.348;2023-12-28T03:05:59;7.14;67.53
20862;DHT22;10591;52.532;13.348;2023-12-28T03:08:30;7.25;66.93
20862;DHT22;10591;52.532;13.348;2023-12-28T03:11:01;7.32;67.24
20862;DHT22;10591;52.532;13.348;2023-12-28T03:13:31;7.30;67.37
20862;DHT22;10591;52.532;13.348;2023-12-28T03:16:02;7.28;67.21
20862;DHT22;10591;52.532;13.348;2023-12-28T03:18:33;7.24;67.42
20862;DHT22;10591;52.532;13.348;2023-12-28T03:21:04;7.36;67.54
20862;DHT22;10591;52.532;13.348;2023-12-28T03:23:35;7.40;66.74
20862;DHT22;10591;52.532;13.348;2023-12-28T03:26:06;7.45;66.56
20862;DHT22;10591;52.532;13.348;2023-12-28T03:28:37;7.50;66.79
20862;DHT22;10591;52.532;13.348;2023-12-28T03:31:07;7.50;66.65
20862;DHT22;10591;52.532;13.348;2023-12-28T03:33:38;7.56;66.67
20862;DHT22;10591;52.532;13.348;2023-12-28T03:36:17;7.59;66.51
20862;DHT22;10591;52.532;13.348;2023-12-28T03:38:42;7.62;66.89
20862;DHT22;10591;52.532;13.348;2023-12-28T03:41:19;7.57;67.29
20862;DHT22;10591;52.532;13.348;2023-12-28T03:43:50;7.69;66.25
20862;DHT22;10591;52.532;13.348;2023-12-28T03:46:20;7.60;67.97
20862;DHT22;10591;52.532;13.348;2023-12-28T03:48:51;7.53;68.75
20862;DHT22;10591;52.532;13.348;2023-12-28T03:51:22;7.51;69.47
20862;DHT22;10591;52.532;13.348;2023-12-28T03:53:53;7.57;69.59
20862;DHT22;10591;52.532;13.348;2023-12-28T03:56:24;7.70;68.77
20862;DHT22;10591;52.532;13.348;2023-12-28T03:58:55;7.78;68.11
20862;DHT22;10591;52.532;13.348;2023-12-28T04:01:26;7.61;69.78
20862;DHT22;10591;52.532;13.348;2023-12-28T04:03:57;7.84;68.92
20862;DHT22;10591;52.532;13.348;2023-12-28T04:06:28;7.82;69.21
20862;DHT22;10591;52.532;13.348;2023-12-28T04:08:59;7.92;68.59
20862;DHT22;10591;52.532;13.348;2023-12-28T04:11:30;7.90;69.01
20862;DHT22;10591;52.532;13.348;2023-12-28T04:14:00;7.72;69.54
20862;DHT22;10591;52.532;13.348;2023-12-28T04:16:31;7.84;69.21
20862;DHT22;10591;52.532;13.348;2023-12-28T04:19:02;7.77;69.39
20862;DHT22;10591;52.532;13.348;2023-12-28T04:21:33;7.83;69.16
20862;DHT22;10591;52.532;13.348;2023-12-28T04:24:04;7.89;68.67
20862;DHT22;10591;52.532;13.348;2023-12-28T04:26:35;7.95;68.01
20862;DHT22;10591;52.532;13.348;2023-12-28T04:29:06;7.94;68.54
20862;DHT22;10591;52.532;13.348;2023-12-28T04:31:42;7.96;68.44
20862;DHT22;10591;52.532;13.348;2023-12-28T04:34:13;8.10;67.58
20862;DHT22;10591;52.532;13.348;2023-12-28T04:36:44;8.06;67.08
20862;DHT22;10591;52.532;13.348;2023-12-28T04:39:16;8.05;67.24
20862;DHT22;10591;52.532;13.348;2023-12-28T04:41:47;8.24;66.35
20862;DHT22;10591;52.532;13.348;2023-12-28T04:44:18;8.14;66.66
20862;DHT22;10591;52.532;13.348;2023-12-28T04:46:48;8.04;66.94
20862;DHT22;10591;52.532;13.348;2023-12-28T04:49:20;8.03;67.16
20862;DHT22;10591;52.532;13.348;2023-12-28T04:51:51;8.18;66.83
20862;DHT22;10591;52.532;13.348;2023-12-28T04:54:22;8.20;66.32
20862;DHT22;10591;52.532;13.348;2023-12-28T04:56:53;8.24;65.97
20862;DHT22;10591;52.532;13.348;2023-12-28T04:59:24;8.24;66.41
20862;DHT22;10591;52.532;13.348;2023-12-28T05:01:54;8.20;66.45
20862;DHT22;10591;52.532;13.348;2023-12-28T05:04:25;8.26;66.77
20862;DHT22;10591;52.532;13.348;2023-12-28T05:06:56;8.26;66.17
20862;DHT22;10591;52.532;13.348;2023-12-28T05:09:27;8.34;65.88
20862;DHT22;10591;52.532;13.348;2023-12-28T05:11:57;8.28;66.41
20862;DHT22;10591;52.532;13.348;2023-12-28T05:14:28;8.17;67.02
20862;DHT22;10591;52.532;13.348;2023-12-28T05:16:59;8.12;67.09
20862;DHT22;10591;52.532;13.348;2023-12-28T05:19:29;8.22;66.84
20862;DHT22;10591;52.532;13.348;2023-12-28T05:22:02;8.08;67.46
20862;DHT22;10591;52.532;13.348;2023-12-28T05:24:39;8.25;66.38
20862;DHT22;10591;52.532;13.348;2023-12-28T05:27:10;8.12;67.31
20862;DHT22;10591;52.532;13.348;2023-12-28T05:29:41;8.24;66.95
20862;DHT22;10591;52.532;13.348;2023-12-28T05:32:11;8.30;66.58
20862;DHT22;10591;52.532;13.348;2023-12-28T05:34:42;8.26;67.22
20862;DHT22;10591;52.532;13.348;2023-12-28T05:37:13;8.20;67.32
20862;DHT22;10591;52.532;13.348;2023-12-28T05:39:43;8.22;67.65
20862;DHT22;10591;52.532;13.348;2023-12-28T05:42:14;8.19;68.16
20862;DHT22;10591;52.532;13.348;2023-12-28T05:44:45;8.20;67.97
20862;DHT22;10591;52.532;13.348;2023-12-28T05:47:15;8.10;68.46
20862;DHT22;10591;52.532;13.348;2023-12-28T05:49:46;7.98;69.13
20862;DHT22;10591;52.532;13.348;2023-12-28T05:52:17;8.18;68.66
20862;DHT22;10591;52.532;13.348;2023-12-28T05:54:49;8.20;68.70
20862;DHT22;10591;52.532;13.348;2023-12-28T05:57:20;8.14;69.06
20862;DHT22;10591;52.532;13.348;2023-12-28T05:59:50;8.18;69.14
20862;DHT22;10591;52.532;13.348;2023-12-28T06:02:21;8.05;70.03
20862;DHT22;10591;52.532;13.348;2023-12-28T06:04:51;8.10;70.01
20862;DHT22;10591;52.532;13.348;2023-12-28T06:07:22;8.12;70.23
20862;DHT22;10591;52.532;13.348;2023-12-28T06:09:53;8.26;70.38
20862;DHT22;10591;52.532;13.348;2023-12-28T06:12:23;8.18;71.26
20862;DHT22;10591;52.532;13.348;2023-12-28T06:14:54;8.26;71.20
20862;DHT22;10591;52.532;13.348;2023-12-28T06:17:25;8.12;72.22
20862;DHT22;10591;52.532;13.348;2023-12-28T06:19:55;8.18;72.26
20862;DHT22;10591;52.532;13.348;2023-12-28T06:22:27;8.14;72.82
20862;DHT22;10591;52.532;13.348;2023-12-28T06:24:58;8.11;73.54
20862;DHT22;10591;52.532;13.348;2023-12-28T06:27:29;8.14;73.34
20862;DHT22;10591;52.532;13.348;2023-12-28T06:30:01;8.06;74.01
20862;DHT22;10591;52.532;13.348;2023-12-28T06:32:32;8.08;73.94
20862;DHT22;10591;52.532;13.348;2023-12-28T06:35:04;8.12;73.84
20862;DHT22;10591;52.532;13.348;2023-12-28T06:37:35;8.17;73.55
20862;DHT22;10591;52.532;13.348;2023-12-28T06:40:06;8.10;73.74
20862;DHT22;10591;52.532;13.348;2023-12-28T06:42:37;8.11;73.82
20862;DHT22;10591;52.532;13.348;2023-12-28T06:45:09;8.12;74.10
20862;DHT22;10591;52.532;13.348;2023-12-28T06:47:39;8.06;74.01
20862;DHT22;10591;52.532;13.348;2023-12-28T06:50:10;8.08;73.97
20862;DHT22;10591;52.532;13.348;2023-12-28T06:52:41;8.14;73.80
20862;DHT22;10591;52.532;13.348;2023-12-28T06:55:12;8.21;73.61
20862;DHT22;10591;52.532;13.348;2023-12-28T06:57:42;8.16;73.83
20862;DHT22;10591;52.532;13.348;2023-12-28T07:00:14;8.05;74.47
20862;DHT22;10591;52.532;13.348;2023-12-28T07:02:45;8.05;74.55
20862;DHT22;10591;52.532;13.348;2023-12-28T07:05:16;8.18;74.06
20862;DHT22;10591;52.532;13.348;2023-12-28T07:07:47;8.00;74.59
20862;DHT22;10591;52.532;13.348;2023-12-28T07:10:18;8.25;73.77
20862;DHT22;10591;52.532;13.348;2023-12-28T07:12:49;8.17;73.94
20862;DHT22;10591;52.532;13.348;2023-12-28T07:15:19;8.28;73.65
20862;DHT22;10591;52.532;13.348;2023-12-28T07:17:50;8.11;74.46
20862;DHT22;10591;52.532;13.348;2023-12-28T07:20:21;8.19;74.30
20862;DHT22;10591;52.532;13.348;2023-12-28T07:22:52;8.08;74.76
20862;DHT22;10591;52.532;13.348;2023-12-28T07:25:23;8.08;74.71
20862;DHT22;10591;52.532;13.348;2023-12-28T07:27:54;8.22;74.68
20862;DHT22;10591;52.532;13.348;2023-12-28T07:30:26;7.98;75.37
20862;DHT22;10591;52.532;13.348;2023-12-28T07:32:56;8.13;74.72
20862;DHT22;10591;52.532;13.348;2023-12-28T07:35:27;8.18;75.00
20862;DHT22;10591;52.532;13.348;2023-12-28T07:37:58;8.20;74.94
20862;DHT22;10591;52.532;13.348;2023-12-28T07:40:30;8.14;75.30
20862;DHT22;10591;52.532;13.348;2023-12-28T07:43:01;8.03;75.46
20862;DHT22;10591;52.532;13.348;2023-12-28T07:45:31;8.08;75.42
20862;DHT22;10591;52.532;13.348;2023-12-28T07:48:04;8.04;75.69
20862;DHT22;10591;52.532;13.348;2023-12-28T07:50:36;8.04;75.61
20862;DHT22;10591;52.532;13.348;2023-12-28T07:53:07;8.18;75.21
20862;DHT22;10591;52.532;13.348;2023-12-28T07:55:41;8.18;75.11
20862;DHT22;10591;52.532;13.348;2023-12-28T07:58:12;8.20;75.50
20862;DHT22;10591;52.532;13.348;2023-12-28T08:00:43;8.08;75.87
20862;DHT22;10591;52.532;13.348;2023-12-28T08:03:13;8.22;75.37
20862;DHT22;10591;52.532;13.348;2023-12-28T08:05:48;8.09;75.92
20862;DHT22;10591;52.532;13.348;2023-12-28T08:08:18;8.22;75.54
20862;DHT22;10591;52.532;13.348;2023-12-28T08:10:49;8.32;75.47
20862;DHT22;10591;52.532;13.348;2023-12-28T08:13:19;8.24;75.76
20862;DHT22;10591;52.532;13.348;2023-12-28T08:15:51;8.26;75.38
20862;DHT22;10591;52.532;13.348;2023-12-28T08:18:21;8.28;75.26
20862;DHT22;10591;52.532;13.348;2023-12-28T08:20:52;8.36;75.12
20862;DHT22;10591;52.532;13.348;2023-12-28T08:23:24;8.40;75.33
20862;DHT22;10591;52.532;13.348;2023-12-28T08:25:57;8.48;74.59
20862;DHT22;10591;52.532;13.348;2023-12-28T08:28:29;8.36;75.12
20862;DHT22;10591;52.532;13.348;2023-12-28T08:30:59;8.48;74.66
20862;DHT22;10591;52.532;13.348;2023-12-28T08:33:30;8.48;74.69
20862;DHT22;10591;52.532;13.348;2023-12-28T08:36:03;8.40;74.67
20862;DHT22;10591;52.532;13.348;2023-12-28T08:38:34;8.54;74.21
20862;DHT22;10591;52.532;13.348;2023-12-28T08:41:04;8.60;73.61
20862;DHT22;10591;52.532;13.348;2023-12-28T08:43:36;8.48;74.15
20862;DHT22;10591;52.532;13.348;2023-12-28T08:46:08;8.46;74.05
20862;DHT22;10591;52.532;13.348;2023-12-28T08:48:40;8.64;73.39
20862;DHT22;10591;52.532;13.348;2023-12-28T08:51:11;8.52;73.60
20862;DHT22;10591;52.532;13.348;2023-12-28T08:53:44;8.66;73.28
20862;DHT22;10591;52.532;13.348;2023-12-28T08:56:20;8.61;73.46
20862;DHT22;10591;52.532;13.348;2023-12-28T08:58:51;8.76;73.07
20862;DHT22;10591;52.532;13.348;2023-12-28T09:01:24;8.70;72.90
20862;DHT22;10591;52.532;13.348;2023-12-28T09:03:55;8.70;73.20
20862;DHT22;10591;52.532;13.348;2023-12-28T09:06:30;8.64;73.23
20862;DHT22;10591;52.532;13.348;2023-12-28T09:09:07;8.80;72.66
20862;DHT22;10591;52.532;13.348;2023-12-28T09:11:38;8.69;72.72
20862;DHT22;10591;52.532;13.348;2023-12-28T09:14:09;8.64;73.13
20862;DHT22;10591;52.532;13.348;2023-12-28T09:16:40;8.77;72.94
20862;DHT22;10591;52.532;13.348;2023-12-28T09:19:13;8.71;72.99
20862;DHT22;10591;52.532;13.348;2023-12-28T09:21:44;8.72;73.40
20862;DHT22;10591;52.532;13.348;2023-12-28T09:24:15;8.76;73.12
20862;DHT22;10591;52.532;13.348;2023-12-28T09:26:47;8.95;72.41
20862;DHT22;10591;52.532;13.348;2023-12-28T09:29:18;8.92;72.64
20862;DHT22;10591;52.532;13.348;2023-12-28T09:31:48;8.75;72.92
20862;DHT22;10591;52.532;13.348;2023-12-28T09:34:19;8.64;73.26
20862;DHT22;10591;52.532;13.348;2023-12-28T09:36:50;8.58;73.66
20862;DHT22;10591;52.532;13.348;2023-12-28T09:39:21;8.66;73.34
20862;DHT22;10591;52.532;13.348;2023-12-28T09:41:59;8.72;73.40
20862;DHT22;10591;52.532;13.348;2023-12-28T09:44:27;8.64;73.18
20862;DHT22;10591;52.532;13.348;2023-12-28T09:46:58;8.68;73.09
20862;DHT22;10591;52.532;13.348;2023-12-28T09:49:31;8.47;73.76
20862;DHT22;10591;52.532;13.348;2023-12-28T09:52:05;8.64;72.97
20862;DHT22;10591;52.532;13.348;2023-12-28T09:54:38;8.56;73.53
20862;DHT22;10591;52.532;13.348;2023-12-28T09:57:09;8.66;73.64
20862;DHT22;10591;52.532;13.348;2023-12-28T09:59:41;8.59;73.45
20862;DHT22;10591;52.532;13.348;2023-12-28T10:02:12;8.70;73.16
20862;DHT22;10591;52.532;13.348;2023-12-28T10:04:44;8.66;73.41
20862;DHT22;10591;52.532;13.348;2023-12-28T10:07:15;8.62;73.66
20862;DHT22;10591;52.532;13.348;2023-12-28T10:09:45;8.68;73.70
20862;DHT22;10591;52.532;13.348;2023-12-28T10:12:16;8.74;73.25
20862;DHT22;10591;52.532;13.348;2023-12-28T10:14:47;8.69;73.29
20862;DHT22;10591;52.532;13.348;2023-12-28T10:17:17;8.73;73.27
20862;DHT22;10591;52.532;13.348;2023-12-28T10:19:48;8.65;73.75
20862;DHT22;10591;52.532;13.348;2023-12-28T10:22:21;8.80;73.67
20862;DHT22;10591;52.532;13.348;2023-12-28T10:24:53;8.76;73.56
20862;DHT22;10591;52.532;13.348;2023-12-28T10:27:24;8.73;73.51
20862;DHT22;10591;52.532;13.348;2023-12-28T10:29:56;8.81;73.58
20862;DHT22;10591;52.532;13.348;2023-12-28T10:32:27;8.76;73.85
20862;DHT22;10591;52.532;13.348;2023-12-28T10:34:59;8.83;73.68
20862;DHT22;10591;52.532;13.348;2023-12-28T10:37:32;8.86;73.53
20862;DHT22;10591;52.532;13.348;2023-12-28T10:40:05;8.82;73.35
20862;DHT22;10591;52.532;13.348;2023-12-28T10:42:52;9.00;72.71
20862;DHT22;10591;52.532;13.348;2023-12-28T10:45:25;9.04;72.69
20862;DHT22;10591;52.532;13.348;2023-12-28T10:48:07;9.16;72.27
20862;DHT22;10591;52.532;13.348;2023-12-28T10:50:46;9.18;72.34
20862;DHT22;10591;52.532;13.348;2023-12-28T10:56:20;9.06;72.97
20862;DHT22;10591;52.532;13.348;2023-12-28T11:01:37;9.08;72.98
20862;DHT22;10591;52.532;13.348;2023-12-28T11:04:34;9.15;72.66
20862;DHT22;10591;52.532;13.348;2023-12-28T11:07:04;9.26;72.20
20862;DHT22;10591;52.532;13.348;2023-12-28T11:09:36;9.32;72.11
20862;DHT22;10591;52.532;13.348;2023-12-28T11:12:10;9.33;71.91
20862;DHT22;10591;52.532;13.348;2023-12-28T11:14:41;9.36;71.79
20862;DHT22;10591;52.532;13.348;2023-12-28T11:17:13;9.46;71.36
20862;DHT22;10591;52.532;13.348;2023-12-28T11:19:53;9.54;70.68
20862;DHT22;10591;52.532;13.348;2023-12-28T11:22:43;9.72;70.37
20862;DHT22;10591;52.532;13.348;2023-12-28T11:25:16;9.70;70.45
20862;DHT22;10591;52.532;13.348;2023-12-28T11:27:47;9.74;69.82
20862;DHT22;10591;52.532;13.348;2023-12-28T11:30:18;9.70;70.04
20862;DHT22;10591;52.532;13.348;2023-12-28T11:32:49;9.72;69.89
20862;DHT22;10591;52.532;13.348;2023-12-28T11:35:19;9.72;69.91
20862;DHT22;10591;52.532;13.348;2023-12-28T11:37:51;9.66;69.83
20862;DHT22;10591;52.532;13.348;2023-12-28T11:40:24;9.71;70.16
20862;DHT22;10591;52.532;13.348;2023-12-28T11:42:55;9.74;69.76
20862;DHT22;10591;52.532;13.348;2023-12-28T11:45:25;9.68;70.02
20862;DHT22;10591;52.532;13.348;2023-12-28T11:48:00;9.72;69.89
20862;DHT22;10591;52.532;13.348;2023-12-28T11:50:32;9.71;69.75
20862;DHT22;10591;52.532;13.348;2023-12-28T11:53:04;9.70;70.03
20862;DHT22;10591;52.532;13.348;2023-12-28T11:55:35;9.74;69.78
20862;DHT22;10591;52.532;13.348;2023-12-28T11:58:07;9.77;69.69
20862;DHT22;10591;52.532;13.348;2023-12-28T12:00:40;9.69;69.91
20862;DHT22;10591;52.532;13.348;2023-12-28T12:03:30;9.85;68.89
20862;DHT22;10591;52.532;13.348;2023-12-28T12:06:04;9.73;69.22
20862;DHT22;10591;52.532;13.348;2023-12-28T12:08:35;9.77;69.18
20862;DHT22;10591;52.532;13.348;2023-12-28T12:11:06;9.80;69.03
20862;DHT22;10591;52.532;13.348;2023-12-28T12:13:37;9.82;68.65
20862;DHT22;10591;52.532;13.348;2023-12-28T12:16:10;9.90;68.99
20862;DHT22;10591;52.532;13.348;2023-12-28T12:18:40;10.00;68.44
20862;DHT22;10591;52.532;13.348;2023-12-28T12:21:12;9.89;68.90
20862;DHT22;10591;52.532;13.348;2023-12-28T12:23:43;9.84;68.68
20862;DHT22;10591;52.532;13.348;2023-12-28T12:26:19;10.02;68.25
20862;DHT22;10591;52.532;13.348;2023-12-28T12:32:07;9.86;68.52
20862;DHT22;10591;52.532;13.348;2023-12-28T12:34:39;10.01;68.55
20862;DHT22;10591;52.532;13.348;2023-12-28T12:37:10;9.90;68.48
20862;DHT22;10591;52.532;13.348;2023-12-28T12:39:46;10.00;68.14
20862;DHT22;10591;52.532;13.348;2023-12-28T12:42:36;9.94;68.54
20862;DHT22;10591;52.532;13.348;2023-12-28T12:47:59;9.91;68.96
20862;DHT22;10591;52.532;13.348;2023-12-28T12:50:31;9.90;68.93
20862;DHT22;10591;52.532;13.348;2023-12-28T12:53:04;9.83;69.45
20862;DHT22;10591;52.532;13.348;2023-12-28T12:55:37;9.89;68.98
20862;DHT22;10591;52.532;13.348;2023-12-28T13:01:22;9.95;68.89
20862;DHT22;10591;52.532;13.348;2023-12-28T13:03:53;9.99;69.19
20862;DHT22;10591;52.532;13.348;2023-12-28T13:06:24;10.04;68.66
20862;DHT22;10591;52.532;13.348;2023-12-28T13:09:14;9.90;69.55
20862;DHT22;10591;52.532;13.348;2023-12-28T13:11:45;9.86;69.83
20862;DHT22;10591;52.532;13.348;2023-12-28T13:14:17;9.94;69.40
20862;DHT22;10591;52.532;13.348;2023-12-28T13:16:49;10.01;69.22
20862;DHT22;10591;52.532;13.348;2023-12-28T13:19:22;10.09;68.70
20862;DHT22;10591;52.532;13.348;2023-12-28T13:21:54;9.88;69.89
20862;DHT22;10591;52.532;13.348;2023-12-28T13:24:25;9.88;69.25
20862;DHT22;10591;52.532;13.348;2023-12-28T13:26:56;9.84;69.99
20862;DHT22;10591;52.532;13.348;2023-12-28T13:29:27;9.80;69.83
20862;DHT22;10591;52.532;13.348;2023-12-28T13:31:59;9.90;69.44
20862;DHT22;10591;52.532;13.348;2023-12-28T13:34:30;9.98;69.16
20862;DHT22;10591;52.532;13.348;2023-12-28T13:37:02;9.92;69.48
20862;DHT22;10591;52.532;13.348;2023-12-28T13:39:33;10.08;68.86
20862;DHT22;10591;52.532;13.348;2023-12-28T13:42:08;10.07;69.15
20862;DHT22;10591;52.532;13.348;2023-12-28T13:44:39;10.21;68.91
20862;DHT22;10591;52.532;13.348;2023-12-28T13:47:11;10.16;68.83
20862;DHT22;10591;52.532;13.348;2023-12-28T13:49:42;10.29;68.95
20862;DHT22;10591;52.532;13.348;2023-12-28T13:52:13;10.27;68.60
20862;DHT22;10591;52.532;13.348;2023-12-28T13:54:44;10.30;68.63
20862;DHT22;10591;52.532;13.348;2023-12-28T13:57:17;10.28;68.79
20862;DHT22;10591;52.532;13.348;2023-12-28T13:59:47;10.24;68.92
20862;DHT22;10591;52.532;13.348;2023-12-28T14:02:18;10.25;68.84
20862;DHT22;10591;52.532;13.348;2023-12-28T14:04:48;10.30;68.82
20862;DHT22;10591;52.532;13.348;2023-12-28T14:07:19;10.24;69.00
20862;DHT22;10591;52.532;13.348;2023-12-28T14:09:50;10.20;69.04
20862;DHT22;10591;52.532;13.348;2023-12-28T14:12:21;10.06;69.42
20862;DHT22;10591;52.532;13.348;2023-12-28T14:14:51;10.12;69.51
20862;DHT22;10591;52.532;13.348;2023-12-28T14:17:22;10.25;68.89
20862;DHT22;10591;52.532;13.348;2023-12-28T14:19:52;10.12;69.27
20862;DHT22;10591;52.532;13.348;2023-12-28T14:22:23;9.94;69.61
20862;DHT22;10591;52.532;13.348;2023-12-28T14:24:54;9.82;70.23
20862;DHT22;10591;52.532;13.348;2023-12-28T14:27:29;9.88;70.02
20862;DHT22;10591;52.532;13.348;2023-12-28T14:30:02;9.86;70.00
20862;DHT22;10591;52.532;13.348;2023-12-28T14:32:34;9.80;70.31
20862;DHT22;10591;52.532;13.348;2023-12-28T14:35:07;9.70;70.90
20862;DHT22;10591;52.532;13.348;2023-12-28T14:37:38;9.82;70.68
20862;DHT22;10591;52.532;13.348;2023-12-28T14:40:09;9.58;71.11
20862;DHT22;10591;52.532;13.348;2023-12-28T14:42:40;9.54;71.39
20862;DHT22;10591;52.532;13.348;2023-12-28T14:45:12;9.46;71.49
20862;DHT22;10591;52.532;13.348;2023-12-28T14:47:42;9.46;71.62
20862;DHT22;10591;52.532;13.348;2023-12-28T14:50:13;9.59;71.11
20862;DHT22;10591;52.532;13.348;2023-12-28T14:52:44;9.58;71.38
20862;DHT22;10591;52.532;13.348;2023-12-28T14:55:16;9.64;70.67
20862;DHT22;10591;52.532;13.348;2023-12-28T14:57:50;9.74;70.37
20862;DHT22;10591;52.532;13.348;2023-12-28T15:00:24;9.66;70.65
20862;DHT22;10591;52.532;13.348;2023-12-28T15:02:54;9.59;71.04
20862;DHT22;10591;52.532;13.348;2023-12-28T15:05:25;9.52;71.31
20862;DHT22;10591;52.532;13.348;2023-12-28T15:07:57;9.49;71.46
20862;DHT22;10591;52.532;13.348;2023-12-28T15:10:28;9.46;71.62
20862;DHT22;10591;52.532;13.348;2023-12-28T15:12:59;9.42;71.48
20862;DHT22;10591;52.532;13.348;2023-12-28T15:15:32;9.44;71.38
20862;DHT22;10591;52.532;13.348;2023-12-28T15:18:03;9.46;71.35
20862;DHT22;10591;52.532;13.348;2023-12-28T15:20:35;9.44;71.53
20862;DHT22;10591;52.532;13.348;2023-12-28T15:23:08;9.28;72.06
20862;DHT22;10591;52.532;13.348;2023-12-28T15:25:39;9.31;71.77
20862;DHT22;10591;52.532;13.348;2023-12-28T15:28:11;9.34;71.94
20862;DHT22;10591;52.532;13.348;2023-12-28T15:30:44;9.22;72.15
20862;DHT22;10591;52.532;13.348;2023-12-28T15:33:14;9.34;71.60
20862;DHT22;10591;52.532;13.348;2023-12-28T15:35:45;9.28;72.22
20862;DHT22;10591;52.532;13.348;2023-12-28T15:38:16;9.23;72.17
20862;DHT22;10591;52.532;13.348;2023-12-28T15:40:49;9.26;72.21
20862;DHT22;10591;52.532;13.348;2023-12-28T15:43:20;9.17;72.56
20862;DHT22;10591;52.532;13.348;2023-12-28T15:45:52;9.24;72.26
20862;DHT22;10591;52.532;13.348;2023-12-28T15:48:22;9.20;72.51
20862;DHT22;10591;52.532;13.348;2023-12-28T15:50:54;9.20;72.57
20862;DHT22;10591;52.532;13.348;2023-12-28T15:53:25;9.17;72.87
20862;DHT22;10591;52.532;13.348;2023-12-28T15:55:57;9.14;72.94
20862;DHT22;10591;52.532;13.348;2023-12-28T15:58:33;9.06;73.29
20862;DHT22;10591;52.532;13.348;2023-12-28T16:01:03;9.12;73.14
20862;DHT22;10591;52.532;13.348;2023-12-28T16:03:34;9.10;73.22
20862;DHT22;10591;52.532;13.348;2023-12-28T16:06:05;8.98;73.56
20862;DHT22;10591;52.532;13.348;2023-12-28T16:08:37;9.02;73.62
20862;DHT22;10591;52.532;13.348;2023-12-28T16:11:09;9.10;73.48
20862;DHT22;10591;52.532;13.348;2023-12-28T16:13:40;9.10;73.71
20862;DHT22;10591;52.532;13.348;2023-12-28T16:16:12;8.90;73.93